Time;durP1;ratioP1;P1;durP2;ratioP2;P2;SDS_P1;SDS_P2;PMS_P1;PMS_P2;Temp;Humidity;BMP_temperature;BMP_pressure;BME280_temperature;BME280_humidity;BME280_pressure;Samples;Min_cycle;Max_cycle;Signal;HPM_P1;HPM_P2
2021/12/27 00:00:03;;;;;;;22.70;14.02;;;-1.10;99.90;;;;;;4884970;29;20077;-58
2021/12/27 00:02:29;;;;;;;23.48;14.45;;;-1.10;99.90;;;;;;4887540;29;20037;-59
2021/12/27 00:04:55;;;;;;;22.73;13.75;;;-1.10;99.90;;;;;;4868511;29;20096;-59
2021/12/27 00:07:21;;;;;;;25.35;14.23;;;-1.00;99.90;;;;;;4885353;29;20048;-60
2021/12/27 00:09:49;;;;;;;19.15;12.95;;;-1.10;99.90;;;;;;4882346;29;20112;-59
2021/12/27 00:12:14;;;;;;;22.27;13.48;;;-1.10;99.90;;;;;;4883649;29;23192;-59
2021/12/27 00:14:40;;;;;;;23.65;13.75;;;-1.10;99.90;;;;;;4867222;29;20215;-58
2021/12/27 00:17:06;;;;;;;21.30;13.07;;;-1.10;99.90;;;;;;4885397;29;20045;-59
2021/12/27 00:19:32;;;;;;;23.45;13.45;;;-1.10;99.90;;;;;;4884394;29;20051;-59
2021/12/27 00:21:58;;;;;;;23.70;14.70;;;-1.00;99.90;;;;;;4883054;29;20063;-59
2021/12/27 00:24:24;;;;;;;21.52;13.88;;;-1.10;99.90;;;;;;4873302;29;20044;-59
2021/12/27 00:26:49;;;;;;;24.45;14.35;;;-1.10;99.90;;;;;;4885344;29;20093;-59
2021/12/27 00:29:15;;;;;;;26.63;13.70;;;-1.00;99.90;;;;;;4884918;29;20119;-59
2021/12/27 00:31:42;;;;;;;25.70;14.70;;;-1.00;99.90;;;;;;4873195;29;20053;-60
2021/12/27 00:34:08;;;;;;;23.80;13.80;;;-1.00;99.90;;;;;;4883031;29;20420;-59
2021/12/27 00:36:33;;;;;;;22.45;13.57;;;-1.10;99.90;;;;;;4886895;29;20040;-57
2021/12/27 00:38:59;;;;;;;23.33;14.07;;;-1.10;99.90;;;;;;4886038;29;20141;-58
2021/12/27 00:41:25;;;;;;;23.90;14.50;;;-1.10;99.90;;;;;;4883504;29;20100;-58
2021/12/27 00:43:51;;;;;;;23.77;14.13;;;-1.10;99.90;;;;;;4883519;29;20052;-59
2021/12/27 00:46:16;;;;;;;22.30;13.32;;;-1.10;99.90;;;;;;4886136;29;20052;-59
2021/12/27 00:48:42;;;;;;;23.23;14.02;;;-1.10;99.90;;;;;;4868167;29;20059;-58
2021/12/27 00:51:09;;;;;;;22.42;13.40;;;-1.10;99.90;;;;;;4867808;29;20048;-59
2021/12/27 00:53:36;;;;;;;28.60;14.43;;;-1.10;99.90;;;;;;4865669;29;20396;-59
2021/12/27 00:56:01;;;;;;;22.27;13.73;;;-1.10;99.90;;;;;;4869542;29;20052;-59
2021/12/27 00:58:27;;;;;;;23.75;14.20;;;-1.10;99.90;;;;;;4883371;29;20636;-59
2021/12/27 01:00:53;;;;;;;25.13;13.70;;;-1.10;99.90;;;;;;4867472;29;20075;-58
2021/12/27 01:03:20;;;;;;;21.33;13.85;;;-1.10;99.90;;;;;;4866602;29;20116;-58
2021/12/27 01:05:47;;;;;;;23.52;14.52;;;-1.10;99.90;;;;;;4882276;29;20520;-58
2021/12/27 01:08:13;;;;;;;23.73;14.10;;;-1.10;99.90;;;;;;4871387;29;20092;-59
2021/12/27 01:11:02;;;;;;;20.98;13.70;;;-1.10;99.90;;;;;;4866588;29;20059;-58
2021/12/27 01:18:32;;;;;;;23.52;13.75;;;-1.20;99.90;;;;;;4885085;29;20151;-59
2021/12/27 01:20:58;;;;;;;22.80;13.55;;;-1.20;99.90;;;;;;4884937;29;20583;-58
2021/12/27 01:23:24;;;;;;;22.58;13.13;;;-1.30;99.90;;;;;;4884605;29;20049;-59
2021/12/27 01:25:50;;;;;;;22.63;13.52;;;-1.30;99.90;;;;;;4873130;29;20048;-58
2021/12/27 01:28:18;;;;;;;23.27;14.32;;;-1.30;99.90;;;;;;4872734;29;20063;-58
2021/12/27 01:30:48;;;;;;;24.73;13.88;;;-1.30;99.90;;;;;;4882919;29;20053;-58
2021/12/27 01:33:16;;;;;;;22.23;13.70;;;-1.40;99.90;;;;;;4883637;29;20047;-57
2021/12/27 01:35:42;;;;;;;23.48;13.95;;;-1.40;99.90;;;;;;4882618;29;20060;-57
2021/12/27 01:38:08;;;;;;;24.67;14.23;;;-1.40;99.90;;;;;;4884605;29;20052;-59
2021/12/27 01:40:35;;;;;;;21.50;14.02;;;-1.40;99.90;;;;;;4884820;29;20048;-60
2021/12/27 01:43:02;;;;;;;23.17;14.13;;;-1.40;99.90;;;;;;4882543;29;20056;-59
2021/12/27 01:45:28;;;;;;;22.48;14.18;;;-1.40;99.90;;;;;;4885001;29;20049;-58
2021/12/27 01:47:55;;;;;;;23.48;13.98;;;-1.40;99.90;;;;;;4885063;29;20045;-59
2021/12/27 01:50:20;;;;;;;21.13;14.00;;;-1.40;99.90;;;;;;4883609;29;20059;-58
2021/12/27 01:52:46;;;;;;;22.80;13.77;;;-1.40;99.90;;;;;;4883184;29;20041;-60
2021/12/27 01:55:12;;;;;;;23.23;14.38;;;-1.40;99.90;;;;;;4885892;29;20089;-58
2021/12/27 01:57:38;;;;;;;25.73;14.80;;;-1.40;99.90;;;;;;4884292;29;20045;-58
2021/12/27 02:00:06;;;;;;;23.50;14.65;;;-1.40;99.90;;;;;;4885263;29;20562;-59
2021/12/27 02:02:32;;;;;;;23.65;14.50;;;-1.40;99.90;;;;;;4879833;29;20052;-57
2021/12/27 02:04:58;;;;;;;21.65;14.10;;;-1.40;99.90;;;;;;4867993;29;20488;-58
2021/12/27 02:07:23;;;;;;;22.20;14.70;;;-1.40;99.90;;;;;;4885921;29;20087;-57
2021/12/27 02:10:01;;;;;;;28.20;15.40;;;-1.40;99.90;;;;;;4888051;29;20080;-59
2021/12/27 02:12:28;;;;;;;23.52;14.77;;;-1.40;99.90;;;;;;4873396;29;20072;-59
2021/12/27 02:14:55;;;;;;;24.55;15.23;;;-1.40;99.90;;;;;;4882877;29;20072;-59
2021/12/27 02:17:20;;;;;;;25.13;15.40;;;-1.40;99.90;;;;;;4888075;29;20135;-57
2021/12/27 02:19:53;;;;;;;25.48;16.08;;;-1.40;99.90;;;;;;4888365;29;20128;-59
2021/12/27 02:22:21;;;;;;;;;;;-1.40;99.90;;;;;;4873894;29;20112;-58
2021/12/27 02:24:47;;;;;;;25.40;14.57;;;-1.40;99.90;;;;;;4887173;29;20513;-59
2021/12/27 02:27:15;;;;;;;24.05;14.85;;;-1.40;99.90;;;;;;4887372;29;20056;-60
2021/12/27 02:29:42;;;;;;;25.13;15.43;;;-1.40;99.90;;;;;;4870487;29;20116;-60
2021/12/27 02:32:08;;;;;;;25.77;15.23;;;-1.40;99.90;;;;;;4886712;29;20511;-57
2021/12/27 02:34:34;;;;;;;26.35;15.30;;;-1.40;99.90;;;;;;4887684;29;20189;-60
2021/12/27 02:37:00;;;;;;;24.33;15.27;;;-1.30;99.90;;;;;;4887051;29;20766;-60
2021/12/27 02:39:28;;;;;;;26.45;16.02;;;-1.30;99.90;;;;;;4887728;29;20056;-60
2021/12/27 02:41:55;;;;;;;26.98;16.23;;;-1.30;99.90;;;;;;4885334;29;20057;-60
2021/12/27 02:44:21;;;;;;;25.13;15.48;;;-1.30;99.90;;;;;;4868940;29;20501;-59
2021/12/27 02:46:47;;;;;;;24.95;15.88;;;-1.30;99.90;;;;;;4875027;29;20052;-59
2021/12/27 02:49:12;;;;;;;27.88;16.10;;;-1.30;99.90;;;;;;4886535;29;20052;-57
2021/12/27 02:51:38;;;;;;;24.05;15.48;;;-1.30;99.90;;;;;;4888761;29;20049;-59
2021/12/27 02:54:04;;;;;;;27.40;16.00;;;-1.30;99.90;;;;;;4853883;29;20044;-58
2021/12/27 02:56:30;;;;;;;24.55;16.48;;;-1.30;99.90;;;;;;4886614;29;20045;-60
2021/12/27 02:58:57;;;;;;;28.48;16.83;;;-1.20;99.90;;;;;;4886596;29;20733;-59
2021/12/27 03:01:24;;;;;;;28.92;17.10;;;-1.20;99.90;;;;;;4887973;29;20044;-58
2021/12/27 03:03:53;;;;;;;25.80;16.70;;;-1.20;99.90;;;;;;4885557;29;20051;-58
2021/12/27 03:06:19;;;;;;;25.30;16.10;;;-1.20;99.90;;;;;;4885786;29;20053;-58
2021/12/27 03:08:47;;;;;;;28.08;16.58;;;-1.20;99.90;;;;;;4884982;29;20052;-60
2021/12/27 03:11:13;;;;;;;28.10;17.08;;;-1.10;99.90;;;;;;4884365;29;20420;-58
2021/12/27 03:13:43;;;;;;;27.27;16.63;;;-1.10;99.90;;;;;;4884467;29;20049;-59
2021/12/27 03:16:13;;;;;;;26.73;15.55;;;-1.10;99.90;;;;;;4885625;29;20440;-60
2021/12/27 03:18:43;;;;;;;29.10;17.58;;;-1.10;99.90;;;;;;4888726;29;20044;-59
2021/12/27 03:21:09;;;;;;;26.60;17.38;;;-1.10;99.90;;;;;;4885780;29;20051;-58
2021/12/27 03:23:37;;;;;;;27.88;17.58;;;-1.10;99.90;;;;;;4884238;29;20113;-58
2021/12/27 03:26:04;;;;;;;29.13;16.17;;;-1.10;99.90;;;;;;4888998;29;20448;-59
2021/12/27 03:28:31;;;;;;;27.67;16.95;;;-1.10;99.90;;;;;;4886214;29;20100;-58
2021/12/27 03:30:57;;;;;;;28.75;16.80;;;-1.10;99.90;;;;;;4886167;29;20397;-58
2021/12/27 03:33:23;;;;;;;27.23;16.33;;;-1.10;99.90;;;;;;4886180;29;20044;-59
2021/12/27 03:36:07;;;;;;;29.17;17.15;;;-1.00;99.90;;;;;;4885128;29;20049;-60
2021/12/27 03:38:40;;;;;;;27.50;16.88;;;-1.00;99.90;;;;;;4885798;29;20040;-60
2021/12/27 03:41:15;;;;;;;27.30;17.52;;;-1.00;99.90;;;;;;4884809;29;20059;-59
2021/12/27 03:43:41;;;;;;;28.90;17.27;;;-1.00;99.90;;;;;;4886609;29;20488;-60
2021/12/27 03:46:08;;;;;;;28.02;17.25;;;-1.00;99.90;;;;;;4869282;29;20493;-59
2021/12/27 03:48:33;;;;;;;29.55;17.40;;;-1.00;99.90;;;;;;4886177;29;20496;-59
2021/12/27 03:51:01;;;;;;;29.55;17.13;;;-1.00;99.90;;;;;;4867986;29;20079;-59
2021/12/27 03:53:26;;;;;;;29.88;17.42;;;-0.90;99.90;;;;;;4886157;29;20041;-58
2021/12/27 03:55:52;;;;;;;28.20;17.25;;;-1.00;99.90;;;;;;4883964;29;20068;-58
2021/12/27 03:58:31;;;;;;;27.90;18.05;;;-0.90;99.90;;;;;;4884201;29;20770;-59
2021/12/27 04:01:13;;;;;;;28.67;17.85;;;-1.00;99.90;;;;;;4886919;29;20052;-60
2021/12/27 04:03:40;;;;;;;27.58;16.35;;;-0.90;99.90;;;;;;4885871;29;20076;-58
2021/12/27 04:06:05;;;;;;;29.25;17.73;;;-0.90;99.90;;;;;;4869574;29;20503;-60
2021/12/27 04:08:31;;;;;;;28.77;16.92;;;-0.90;99.90;;;;;;4886097;29;20075;-58
2021/12/27 04:10:57;;;;;;;27.95;17.13;;;-0.90;99.90;;;;;;4853767;29;20283;-58
2021/12/27 04:13:23;;;;;;;28.65;18.45;;;-0.90;99.90;;;;;;4883509;29;20718;-59
2021/12/27 04:15:51;;;;;;;31.33;18.20;;;-0.90;99.90;;;;;;4882140;29;20053;-58
2021/12/27 04:18:17;;;;;;;34.22;17.95;;;-0.80;99.90;;;;;;4886150;29;20057;-59
2021/12/27 04:20:43;;;;;;;30.42;18.90;;;-0.90;99.90;;;;;;4885124;29;20045;-58
2021/12/27 04:23:09;;;;;;;29.55;18.33;;;-0.90;99.90;;;;;;4883797;29;20409;-59
2021/12/27 04:25:35;;;;;;;28.30;18.02;;;-0.80;99.90;;;;;;4884485;29;20511;-59
2021/12/27 04:28:01;;;;;;;31.98;17.63;;;-0.80;99.90;;;;;;4887747;29;20048;-59
2021/12/27 04:30:27;;;;;;;28.75;18.67;;;-0.80;99.90;;;;;;4885520;29;20603;-59
2021/12/27 04:32:53;;;;;;;33.20;17.90;;;-0.80;99.90;;;;;;4868523;29;20045;-58
2021/12/27 04:35:21;;;;;;;31.33;18.15;;;-0.80;99.90;;;;;;4885197;29;20055;-60
2021/12/27 04:37:48;;;;;;;28.45;18.42;;;-0.80;99.90;;;;;;4872396;29;20115;-58
2021/12/27 04:40:16;;;;;;;31.85;19.13;;;-0.80;99.90;;;;;;4885519;29;20093;-59
2021/12/27 04:42:45;;;;;;;31.73;18.25;;;-0.80;99.90;;;;;;4872036;29;20553;-58
2021/12/27 04:45:14;;;;;;;33.40;19.70;;;-0.80;99.90;;;;;;4884097;29;20524;-61
2021/12/27 04:47:41;;;;;;;30.95;18.85;;;-0.70;99.90;;;;;;4868543;29;20120;-60
2021/12/27 04:50:08;;;;;;;31.08;19.38;;;-0.70;99.90;;;;;;4883264;29;20056;-58
2021/12/27 04:52:34;;;;;;;33.92;20.08;;;-0.70;99.90;;;;;;4883199;29;20508;-57
2021/12/27 04:55:00;;;;;;;30.45;18.70;;;-0.70;99.90;;;;;;4872775;29;20132;-60
2021/12/27 04:57:25;;;;;;;33.08;19.00;;;-0.70;99.90;;;;;;4870018;29;20048;-59
2021/12/27 04:59:51;;;;;;;30.85;19.35;;;-0.70;99.90;;;;;;4886597;29;20057;-59
2021/12/27 05:02:17;;;;;;;29.92;18.38;;;-0.70;99.90;;;;;;4884069;29;20464;-58
2021/12/27 05:04:43;;;;;;;32.85;19.75;;;-0.70;99.90;;;;;;4882336;29;20048;-59
2021/12/27 05:07:09;;;;;;;31.63;19.88;;;-0.70;99.90;;;;;;4882445;29;20067;-58
2021/12/27 05:09:35;;;;;;;32.10;19.63;;;-0.60;99.90;;;;;;4865312;29;20492;-60
2021/12/27 05:12:01;;;;;;;32.80;19.15;;;-0.60;99.90;;;;;;4865533;29;20127;-60
2021/12/27 05:14:26;;;;;;;30.58;19.23;;;-0.50;99.90;;;;;;4884542;29;20080;-57
2021/12/27 05:16:52;;;;;;;36.60;19.35;;;-0.60;99.90;;;;;;4883527;29;20067;-57
2021/12/27 05:19:18;;;;;;;32.42;19.67;;;-0.60;99.90;;;;;;4884782;29;20048;-58
2021/12/27 05:21:44;;;;;;;31.67;19.38;;;-0.60;99.90;;;;;;4884968;29;20056;-58
2021/12/27 05:24:09;;;;;;;29.58;18.48;;;-0.50;99.90;;;;;;4884571;29;20538;-59
2021/12/27 05:26:35;;;;;;;30.38;19.20;;;-0.60;99.90;;;;;;4883251;29;20488;-58
2021/12/27 05:29:01;;;;;;;31.23;19.27;;;-0.50;99.90;;;;;;4883673;29;20055;-59
2021/12/27 05:31:27;;;;;;;29.77;19.17;;;-0.40;99.90;;;;;;4884572;29;20116;-59
2021/12/27 05:33:52;;;;;;;30.80;18.90;;;-0.50;99.90;;;;;;4883226;29;20052;-59
2021/12/27 05:36:18;;;;;;;30.67;19.58;;;-0.50;99.90;;;;;;4867935;29;20106;-59
2021/12/27 05:38:44;;;;;;;31.35;18.88;;;-0.50;99.90;;;;;;4890509;29;20514;-59
2021/12/27 05:41:10;;;;;;;31.55;20.38;;;-0.50;99.90;;;;;;4890180;29;20048;-57
2021/12/27 05:43:36;;;;;;;32.85;20.35;;;-0.40;99.90;;;;;;4890534;29;20389;-59
2021/12/27 05:46:02;;;;;;;32.20;19.67;;;-0.40;99.90;;;;;;4873190;29;20497;-59
2021/12/27 05:48:28;;;;;;;33.90;19.42;;;-0.40;99.90;;;;;;4890428;29;20049;-60
2021/12/27 05:50:54;;;;;;;36.90;21.08;;;-0.40;99.90;;;;;;4889522;29;20053;-59
2021/12/27 05:53:20;;;;;;;37.28;21.83;;;-0.40;99.90;;;;;;4872390;29;20056;-58
2021/12/27 05:55:46;;;;;;;37.13;22.27;;;-0.40;99.90;;;;;;4890279;29;20128;-58
2021/12/27 05:58:12;;;;;;;34.88;22.23;;;-0.40;99.90;;;;;;4890743;29;20055;-58
2021/12/27 06:00:39;;;;;;;37.83;22.67;;;-0.40;99.90;;;;;;4862034;29;20044;-59
2021/12/27 06:03:05;;;;;;;38.38;23.20;;;-0.40;99.90;;;;;;4890165;29;20052;-58
2021/12/27 06:05:31;;;;;;;44.45;24.45;;;-0.40;99.90;;;;;;4873566;29;20087;-59
2021/12/27 06:07:57;;;;;;;39.10;23.33;;;-0.40;99.90;;;;;;4890769;29;21198;-58
2021/12/27 06:10:23;;;;;;;41.00;23.48;;;-0.40;99.90;;;;;;4891547;29;20075;-59
2021/12/27 06:12:49;;;;;;;39.45;23.45;;;-0.40;99.90;;;;;;4890503;29;20052;-58
2021/12/27 06:15:15;;;;;;;42.47;24.35;;;-0.40;99.90;;;;;;4888813;29;20136;-59
2021/12/27 06:17:42;;;;;;;43.95;24.83;;;-0.40;99.90;;;;;;4891287;29;20236;-59
2021/12/27 06:20:12;;;;;;;41.90;24.20;;;-0.40;99.90;;;;;;4873320;29;20128;-58
2021/12/27 06:22:41;;;;;;;51.65;25.27;;;-0.40;99.90;;;;;;4889123;29;20056;-58
2021/12/27 06:25:07;;;;;;;45.85;24.92;;;-0.40;99.90;;;;;;4860894;29;20059;-59
2021/12/27 06:27:33;;;;;;;47.42;24.60;;;-0.40;99.90;;;;;;4892427;29;20041;-59
2021/12/27 06:30:00;;;;;;;45.70;25.75;;;-0.40;99.90;;;;;;4871463;29;20059;-59
2021/12/27 06:32:26;;;;;;;51.25;26.17;;;-0.40;99.90;;;;;;4889688;29;20053;-59
2021/12/27 06:34:52;;;;;;;49.47;24.98;;;-0.40;99.90;;;;;;4877625;29;20112;-58
2021/12/27 06:37:18;;;;;;;48.38;24.42;;;-0.40;99.90;;;;;;4871979;29;20040;-58
2021/12/27 06:39:44;;;;;;;47.10;25.55;;;-0.30;99.90;;;;;;4889386;29;20323;-58
2021/12/27 06:42:10;;;;;;;47.67;25.20;;;-0.40;99.90;;;;;;4889494;29;20056;-58
2021/12/27 06:44:36;;;;;;;51.30;26.15;;;-0.30;99.90;;;;;;4889377;29;20072;-59
2021/12/27 06:47:03;;;;;;;47.55;24.90;;;-0.30;99.90;;;;;;4891118;29;20082;-58
2021/12/27 06:49:31;;;;;;;44.85;24.98;;;-0.30;99.90;;;;;;4886588;29;20057;-58
2021/12/27 06:51:58;;;;;;;44.88;24.27;;;-0.30;99.90;;;;;;4888478;29;20556;-59
2021/12/27 06:54:24;;;;;;;46.85;25.10;;;-0.30;99.90;;;;;;4886873;29;20131;-60
2021/12/27 06:56:51;;;;;;;46.47;25.30;;;-0.30;99.90;;;;;;4887822;29;20155;-59
2021/12/27 06:59:17;;;;;;;48.03;25.98;;;-0.30;99.90;;;;;;4875104;29;20075;-59
2021/12/27 07:01:43;;;;;;;48.72;26.20;;;-0.20;99.90;;;;;;4881336;29;20403;-57
2021/12/27 07:04:09;;;;;;;42.42;24.25;;;-0.20;99.90;;;;;;4886121;29;20040;-59
2021/12/27 07:06:35;;;;;;;50.45;25.48;;;-0.20;99.90;;;;;;4884936;29;20128;-58
2021/12/27 07:09:03;;;;;;;50.35;25.08;;;-0.20;99.90;;;;;;4885550;29;20047;-57
2021/12/27 07:11:29;;;;;;;48.70;24.00;;;-0.20;99.90;;;;;;4884339;29;20048;-58
2021/12/27 07:13:54;;;;;;;51.40;25.92;;;-0.20;99.90;;;;;;4884872;29;20064;-59
2021/12/27 07:16:20;;;;;;;50.75;25.98;;;-0.10;99.90;;;;;;4886504;29;20049;-59
2021/12/27 07:18:46;;;;;;;53.47;27.35;;;-0.20;99.90;;;;;;4886107;29;20052;-58
2021/12/27 07:21:12;;;;;;;54.40;26.80;;;-0.10;99.90;;;;;;4887456;29;20076;-58
2021/12/27 07:23:38;;;;;;;57.38;26.30;;;-0.10;99.90;;;;;;4886024;29;20049;-59
2021/12/27 07:26:03;;;;;;;56.17;26.42;;;-0.10;99.90;;;;;;4887721;29;20114;-58
2021/12/27 07:28:29;;;;;;;50.88;26.15;;;-0.10;99.90;;;;;;4886227;29;20048;-59
2021/12/27 07:30:55;;;;;;;52.63;26.15;;;-0.10;99.90;;;;;;4883328;29;20129;-58
2021/12/27 07:33:21;;;;;;;55.90;26.15;;;-0.10;99.90;;;;;;4886901;29;21283;-59
2021/12/27 07:35:47;;;;;;;52.83;25.60;;;-0.10;99.90;;;;;;4885978;29;20052;-58
2021/12/27 07:38:14;;;;;;;52.42;25.88;;;-0.10;99.90;;;;;;4883825;29;20044;-58
2021/12/27 07:40:40;;;;;;;53.63;26.13;;;0.10;99.90;;;;;;4886037;29;20139;-59
2021/12/27 07:43:05;;;;;;;56.25;27.67;;;-0.10;99.90;;;;;;4866759;29;20485;-58
2021/12/27 07:45:31;;;;;;;51.58;26.30;;;-0.10;99.90;;;;;;4872482;29;20052;-59
2021/12/27 07:47:57;;;;;;;63.45;27.73;;;-0.10;99.90;;;;;;4882869;29;20156;-58
2021/12/27 07:50:24;;;;;;;56.28;26.83;;;-0.10;99.90;;;;;;4884053;29;20040;-58
2021/12/27 07:52:51;;;;;;;52.83;26.83;;;-0.10;99.90;;;;;;4867138;29;20141;-58
2021/12/27 07:55:17;;;;;;;54.65;25.60;;;-0.10;99.90;;;;;;4884417;29;20083;-59
2021/12/27 07:57:43;;;;;;;55.22;27.38;;;-0.10;99.90;;;;;;4883910;29;20154;-58
2021/12/27 08:00:10;;;;;;;53.33;25.83;;;-0.10;99.90;;;;;;4880856;29;20052;-59
2021/12/27 08:02:37;;;;;;;57.88;27.88;;;-0.10;99.90;;;;;;4866148;29;20076;-59
2021/12/27 08:05:04;;;;;;;49.72;26.48;;;-0.10;99.90;;;;;;4869581;29;20182;-58
2021/12/27 08:07:29;;;;;;;51.58;26.88;;;-0.10;99.90;;;;;;4866844;29;20481;-60
2021/12/27 08:09:55;;;;;;;56.95;27.13;;;-0.10;99.90;;;;;;4884470;29;20052;-56
2021/12/27 08:12:21;;;;;;;56.30;27.27;;;-0.10;99.90;;;;;;4884886;29;20087;-57
2021/12/27 08:14:47;;;;;;;53.45;26.90;;;-0.10;99.90;;;;;;4884546;29;20580;-57
2021/12/27 08:17:13;;;;;;;54.95;27.20;;;0.00;99.90;;;;;;4885387;29;20092;-59
2021/12/27 08:19:38;;;;;;;57.72;27.17;;;0.00;99.90;;;;;;4883842;29;20080;-58
2021/12/27 08:22:06;;;;;;;54.78;28.08;;;0.00;99.90;;;;;;4869744;29;20543;-58
2021/12/27 08:24:32;;;;;;;58.28;28.23;;;0.00;99.90;;;;;;4884243;29;20135;-58
2021/12/27 08:27:02;;;;;;;59.42;27.90;;;0.00;99.90;;;;;;4882723;29;20484;-58
2021/12/27 08:29:28;;;;;;;50.90;27.08;;;0.00;99.90;;;;;;4872979;29;20143;-59
2021/12/27 08:31:54;;;;;;;58.85;26.20;;;0.00;99.90;;;;;;4883505;29;20141;-57
2021/12/27 08:34:19;;;;;;;55.42;27.15;;;0.00;99.90;;;;;;4882914;29;20124;-59
2021/12/27 08:36:45;;;;;;;54.58;27.23;;;0.10;99.90;;;;;;4881995;29;20103;-58
2021/12/27 08:39:11;;;;;;;55.20;26.95;;;0.10;99.90;;;;;;4867706;29;20048;-59
2021/12/27 08:41:37;;;;;;;59.05;28.08;;;0.10;99.90;;;;;;4885292;29;20139;-59
2021/12/27 08:44:05;;;;;;;56.65;28.20;;;0.10;99.90;;;;;;4885595;29;20501;-59
2021/12/27 08:46:32;;;;;;;60.05;27.77;;;0.10;99.90;;;;;;4884505;29;20049;-57
2021/12/27 08:48:58;;;;;;;58.78;27.42;;;0.20;99.90;;;;;;4885119;29;20570;-59
2021/12/27 08:51:25;;;;;;;59.33;27.98;;;0.10;99.90;;;;;;4883493;29;20047;-59
2021/12/27 08:53:51;;;;;;;68.43;28.23;;;0.10;99.90;;;;;;4870827;29;20135;-58
2021/12/27 08:56:18;;;;;;;68.47;28.65;;;0.20;99.90;;;;;;4870792;29;20108;-58
2021/12/27 08:58:44;;;;;;;63.10;28.27;;;0.10;99.90;;;;;;4885276;29;20103;-58
2021/12/27 09:01:10;;;;;;;64.90;28.65;;;0.20;99.90;;;;;;4883562;29;20762;-57
2021/12/27 09:03:36;;;;;;;64.70;29.10;;;0.20;99.90;;;;;;4882997;29;20049;-58
2021/12/27 09:06:03;;;;;;;76.07;29.98;;;0.20;99.90;;;;;;4878857;29;20052;-60
2021/12/27 09:08:29;;;;;;;61.30;29.45;;;0.20;99.90;;;;;;4884382;29;20051;-57
2021/12/27 09:10:57;;;;;;;65.75;28.27;;;0.20;99.90;;;;;;4865673;29;20055;-60
2021/12/27 09:13:31;;;;;;;64.82;29.25;;;0.20;99.90;;;;;;4882928;29;20064;-56
2021/12/27 09:16:01;;;;;;;59.10;28.70;;;0.20;99.90;;;;;;4886148;29;20057;-56
2021/12/27 09:18:28;;;;;;;64.75;28.42;;;0.30;99.90;;;;;;4885343;29;20032;-58
2021/12/27 09:20:54;;;;;;;55.50;27.83;;;0.30;99.90;;;;;;4881895;29;20037;-59
2021/12/27 09:23:20;;;;;;;66.55;28.17;;;0.30;99.90;;;;;;4882957;29;20176;-57
2021/12/27 09:25:47;;;;;;;63.70;27.83;;;0.30;99.90;;;;;;4884785;29;20528;-59
2021/12/27 09:28:13;;;;;;;62.50;28.17;;;0.30;99.90;;;;;;4866586;29;20551;-58
2021/12/27 09:30:39;;;;;;;62.55;28.42;;;0.30;99.90;;;;;;4883629;29;20045;-59
2021/12/27 09:33:05;;;;;;;61.38;26.80;;;0.30;99.90;;;;;;4883300;29;20051;-58
2021/12/27 09:35:32;;;;;;;60.22;27.23;;;0.30;99.90;;;;;;4881177;29;20059;-59
2021/12/27 09:37:57;;;;;;;62.05;27.77;;;0.30;99.90;;;;;;4882358;29;20433;-59
2021/12/27 09:40:23;;;;;;;63.83;28.20;;;0.30;99.90;;;;;;4883470;29;20055;-59
2021/12/27 09:42:52;;;;;;;61.80;27.85;;;0.30;99.90;;;;;;4883507;29;20052;-59
2021/12/27 09:45:19;;;;;;;64.35;28.70;;;0.40;99.90;;;;;;4866670;29;20209;-58
2021/12/27 09:47:47;;;;;;;64.05;27.80;;;0.40;99.90;;;;;;4884100;29;20059;-58
2021/12/27 09:50:20;;;;;;;59.97;27.60;;;0.40;99.90;;;;;;4870571;29;20048;-58
2021/12/27 09:52:46;;;;;;;63.05;26.85;;;0.40;99.90;;;;;;4865918;29;20136;-59
2021/12/27 09:55:12;;;;;;;68.95;28.40;;;0.40;99.90;;;;;;4866947;29;20052;-59
2021/12/27 09:57:38;;;;;;;68.07;29.67;;;0.40;99.90;;;;;;4883155;29;20044;-59
2021/12/27 10:00:05;;;;;;;62.17;28.30;;;0.40;99.90;;;;;;4883577;29;20046;-59
2021/12/27 10:02:34;;;;;;;63.67;28.90;;;0.50;99.90;;;;;;4882073;29;20076;-59
2021/12/27 10:05:00;;;;;;;66.38;28.98;;;0.50;99.90;;;;;;4866398;29;20087;-58
2021/12/27 10:07:28;;;;;;;57.85;28.15;;;0.50;99.90;;;;;;4854020;29;20044;-58
2021/12/27 10:09:59;;;;;;;59.13;28.58;;;0.50;99.90;;;;;;4884579;29;20058;-57
2021/12/27 10:12:29;;;;;;;65.70;29.75;;;0.50;99.90;;;;;;4883749;29;20131;-59
2021/12/27 10:15:00;;;;;;;69.25;30.60;;;0.50;99.90;;;;;;4880642;29;20422;-57
2021/12/27 10:17:29;;;;;;;58.25;29.05;;;0.60;99.90;;;;;;4880667;29;20137;-57
2021/12/27 10:19:55;;;;;;;59.10;28.60;;;0.60;99.90;;;;;;4882583;29;20580;-59
2021/12/27 10:22:24;;;;;;;62.22;29.55;;;0.60;99.90;;;;;;4862853;29;20075;-59
2021/12/27 10:24:53;;;;;;;56.40;28.13;;;0.60;99.90;;;;;;4870744;29;20520;-59
2021/12/27 10:27:19;;;;;;;66.53;29.13;;;0.60;99.90;;;;;;4887413;29;20053;-59
2021/12/27 10:29:46;;;;;;;65.57;28.25;;;0.60;99.90;;;;;;4886525;29;20402;-59
2021/12/27 10:32:18;;;;;;;70.18;29.65;;;0.60;99.90;;;;;;4884301;29;20064;-59
2021/12/27 10:34:50;;;;;;;71.47;30.10;;;0.70;99.90;;;;;;4886120;29;20508;-58
2021/12/27 10:37:23;;;;;;;70.18;29.25;;;0.70;99.90;;;;;;4870119;29;20412;-58
2021/12/27 10:39:54;;;;;;;69.75;29.42;;;0.70;99.90;;;;;;4885573;29;20047;-60
2021/12/27 10:42:35;;;;;;;73.15;31.27;;;0.70;99.90;;;;;;4869981;29;20128;-59
2021/12/27 10:45:13;;;;;;;76.03;30.77;;;0.70;99.90;;;;;;4886338;29;20056;-59
2021/12/27 10:47:42;;;;;;;72.07;29.20;;;0.70;99.90;;;;;;4885195;29;20048;-58
2021/12/27 10:50:16;;;;;;;81.40;32.15;;;0.80;99.90;;;;;;4865763;29;20052;-59
2021/12/27 10:53:06;;;;;;;85.35;32.78;;;0.80;99.90;;;;;;4885948;29;20052;-59
2021/12/27 10:55:39;;;;;;;78.22;30.33;;;0.80;99.90;;;;;;4887396;29;20071;-60
2021/12/27 10:58:27;;;;;;;89.95;31.77;;;0.80;99.90;;;;;;4868923;29;20500;-57
2021/12/27 11:01:01;;;;;;;94.32;33.20;;;0.80;99.90;;;;;;4885169;29;20067;-59
2021/12/27 11:03:36;;;;;;;86.40;33.20;;;0.80;99.90;;;;;;4887183;29;20045;-59
2021/12/27 11:06:06;;;;;;;83.25;30.77;;;0.80;99.90;;;;;;4856749;29;20059;-59
2021/12/27 11:08:33;;;;;;;103.60;34.33;;;0.90;99.90;;;;;;4868747;29;20048;-59
2021/12/27 11:11:00;;;;;;;78.80;30.80;;;0.90;99.90;;;;;;4885442;29;20578;-59
2021/12/27 11:13:27;;;;;;;92.45;32.88;;;0.90;99.90;;;;;;4885515;29;20055;-59
2021/12/27 11:15:53;;;;;;;90.80;34.15;;;1.00;99.90;;;;;;4867333;29;20144;-58
2021/12/27 11:18:19;;;;;;;98.47;33.42;;;1.00;99.90;;;;;;4881417;29;20052;-60
2021/12/27 11:20:54;;;;;;;91.45;33.25;;;1.10;99.90;;;;;;4882280;29;20492;-59
2021/12/27 11:23:21;;;;;;;90.53;32.03;;;1.10;99.90;;;;;;4887752;29;20060;-59
2021/12/27 11:25:48;;;;;;;99.53;33.20;;;1.10;99.90;;;;;;4885969;29;20060;-59
2021/12/27 11:28:30;;;;;;;100.97;34.13;;;1.20;99.90;;;;;;4873266;29;20053;-58
2021/12/27 11:30:59;;;;;;;97.07;34.47;;;1.20;99.90;;;;;;4885162;29;22439;-59
2021/12/27 11:33:25;;;;;;;107.72;35.63;;;1.20;99.90;;;;;;4884765;29;20136;-58
2021/12/27 11:35:57;;;;;;;103.72;35.92;;;1.30;99.90;;;;;;4884481;29;20047;-61
2021/12/27 11:38:34;;;;;;;97.68;34.13;;;1.30;99.90;;;;;;4885049;29;20096;-59
2021/12/27 11:41:03;;;;;;;99.72;34.88;;;1.30;99.90;;;;;;4881075;29;20541;-59
2021/12/27 11:43:51;;;;;;;91.88;33.72;;;1.40;99.90;;;;;;4885055;29;20092;-60
2021/12/27 11:46:17;;;;;;;103.82;34.90;;;1.40;99.90;;;;;;4885509;29;20699;-58
2021/12/27 11:48:46;;;;;;;109.38;34.70;;;1.40;99.90;;;;;;4886290;29;20335;-59
2021/12/27 11:51:13;;;;;;;108.00;36.50;;;1.40;99.90;;;;;;4867741;29;20051;-59
2021/12/27 11:53:53;;;;;;;120.40;35.15;;;1.40;99.90;;;;;;4868014;29;20087;-59
2021/12/27 11:56:41;;;;;;;100.18;34.28;;;1.40;99.90;;;;;;4868682;29;20052;-59
2021/12/27 11:59:25;;;;;;;137.55;36.50;;;1.40;99.90;;;;;;4884977;29;20062;-58
2021/12/27 12:01:59;;;;;;;131.55;35.45;;;1.40;99.90;;;;;;4886295;29;20056;-59
2021/12/27 12:04:42;;;;;;;118.78;35.70;;;1.40;99.90;;;;;;4884622;29;20056;-59
2021/12/27 12:07:09;;;;;;;126.97;36.28;;;1.40;99.90;;;;;;4883721;29;20044;-59
2021/12/27 12:09:50;;;;;;;150.43;36.67;;;1.40;99.90;;;;;;4887498;29;20684;-59
2021/12/27 12:12:16;;;;;;;138.23;37.40;;;1.40;99.90;;;;;;4882242;29;20049;-59
2021/12/27 12:14:42;;;;;;;143.38;36.33;;;1.40;99.90;;;;;;4869694;29;20056;-59
2021/12/27 12:17:15;;;;;;;144.55;36.50;;;1.40;99.90;;;;;;4885188;29;20477;-59
2021/12/27 12:19:47;;;;;;;101.43;32.13;;;1.40;99.90;;;;;;4884598;29;20059;-59
2021/12/27 12:22:34;;;;;;;145.18;36.90;;;1.40;99.90;;;;;;4883901;29;20041;-57
2021/12/27 12:25:11;;;;;;;115.22;33.45;;;1.50;99.90;;;;;;4882082;29;20056;-58
2021/12/27 12:27:48;;;;;;;107.20;36.22;;;1.50;99.90;;;;;;4884785;29;20190;-59
2021/12/27 12:30:14;;;;;;;95.65;34.65;;;1.50;99.90;;;;;;4885337;29;20075;-60
2021/12/27 12:32:41;;;;;;;94.28;32.63;;;1.60;99.90;;;;;;4884913;29;20049;-58
2021/12/27 12:35:07;;;;;;;86.85;30.98;;;1.60;99.90;;;;;;4883292;29;20104;-59
2021/12/27 12:37:33;;;;;;;101.80;34.45;;;1.60;99.90;;;;;;4886309;29;20052;-59